sensor_id;sensor_type;location;lat;lon;timestamp;pressure;altitude;pressure_sealevel;temperature;humidity
13387;BME280;6763;48.524;9.044;2023-10-31T00:01:03;96236.44;;;15.63;64.21
13387;BME280;6763;48.524;9.044;2023-10-31T00:03:28;96197.47;;;15.33;64.24
13387;BME280;6763;48.524;9.044;2023-10-31T00:05:53;96214.59;;;15.37;64.06
13387;BME280;6763;48.524;9.044;2023-10-31T00:08:19;96226.50;;;15.41;64.23
13387;BME280;6763;48.524;9.044;2023-10-31T00:10:44;96245.50;;;15.43;64.25
13387;BME280;6763;48.524;9.044;2023-10-31T00:13:10;96274.91;;;15.59;64.33
13387;BME280;6763;48.524;9.044;2023-10-31T00:15:36;96302.56;;;15.62;64.43
13387;BME280;6763;48.524;9.044;2023-10-31T00:18:02;96266.75;;;15.51;64.51
13387;BME280;6763;48.524;9.044;2023-10-31T00:20:27;96272.78;;;15.51;64.34
13387;BME280;6763;48.524;9.044;2023-10-31T00:22:53;96243.28;;;15.37;63.97
13387;BME280;6763;48.524;9.044;2023-10-31T00:25:18;96266.19;;;15.46;63.87
13387;BME280;6763;48.524;9.044;2023-10-31T00:27:44;96274.00;;;15.46;64.06
13387;BME280;6763;48.524;9.044;2023-10-31T00:30:10;96260.22;;;15.30;63.94
13387;BME280;6763;48.524;9.044;2023-10-31T00:32:35;96266.06;;;15.33;64.21
13387;BME280;6763;48.524;9.044;2023-10-31T00:35:01;96279.22;;;15.32;63.96
13387;BME280;6763;48.524;9.044;2023-10-31T00:37:26;96274.53;;;15.23;64.18
13387;BME280;6763;48.524;9.044;2023-10-31T00:39:52;96290.84;;;15.26;64.00
13387;BME280;6763;48.524;9.044;2023-10-31T00:42:17;96290.75;;;15.28;63.92
13387;BME280;6763;48.524;9.044;2023-10-31T00:44:42;96280.88;;;15.19;64.16
13387;BME280;6763;48.524;9.044;2023-10-31T00:47:08;96221.97;;;14.74;63.78
13387;BME280;6763;48.524;9.044;2023-10-31T00:49:33;96291.41;;;15.17;63.90
13387;BME280;6763;48.524;9.044;2023-10-31T00:51:58;96276.50;;;15.05;63.84
13387;BME280;6763;48.524;9.044;2023-10-31T00:54:24;96311.97;;;15.22;63.64
13387;BME280;6763;48.524;9.044;2023-10-31T00:56:49;96296.31;;;15.08;63.24
13387;BME280;6763;48.524;9.044;2023-10-31T00:59:14;96276.97;;;14.98;63.83
13387;BME280;6763;48.524;9.044;2023-10-31T01:01:40;96265.44;;;14.87;63.80
13387;BME280;6763;48.524;9.044;2023-10-31T01:04:06;96301.34;;;15.11;63.85
13387;BME280;6763;48.524;9.044;2023-10-31T01:06:31;96269.63;;;14.90;63.52
13387;BME280;6763;48.524;9.044;2023-10-31T01:08:56;96303.41;;;15.06;63.56
13387;BME280;6763;48.524;9.044;2023-10-31T01:11:22;96245.28;;;14.61;63.73
13387;BME280;6763;48.524;9.044;2023-10-31T01:13:47;96315.31;;;14.96;63.29
13387;BME280;6763;48.524;9.044;2023-10-31T01:16:12;96277.50;;;14.60;63.47
13387;BME280;6763;48.524;9.044;2023-10-31T01:18:38;96316.09;;;14.68;63.30
13387;BME280;6763;48.524;9.044;2023-10-31T01:21:03;96326.59;;;14.66;63.35
13387;BME280;6763;48.524;9.044;2023-10-31T01:23:28;96347.91;;;14.73;63.34
13387;BME280;6763;48.524;9.044;2023-10-31T01:25:54;96329.16;;;14.52;63.35
13387;BME280;6763;48.524;9.044;2023-10-31T01:28:19;96326.63;;;14.51;63.56
13387;BME280;6763;48.524;9.044;2023-10-31T01:30:44;96343.22;;;14.64;63.24
13387;BME280;6763;48.524;9.044;2023-10-31T01:33:10;96318.06;;;14.49;63.29
13387;BME280;6763;48.524;9.044;2023-10-31T01:35:35;96344.25;;;14.61;63.48
13387;BME280;6763;48.524;9.044;2023-10-31T01:38:00;96355.22;;;14.66;63.75
13387;BME280;6763;48.524;9.044;2023-10-31T01:40:26;96269.78;;;14.13;63.51
13387;BME280;6763;48.524;9.044;2023-10-31T01:42:51;96348.59;;;14.61;63.65
13387;BME280;6763;48.524;9.044;2023-10-31T01:45:17;96353.56;;;14.65;63.87
13387;BME280;6763;48.524;9.044;2023-10-31T01:47:43;96341.06;;;14.56;63.87
13387;BME280;6763;48.524;9.044;2023-10-31T01:50:10;96347.53;;;14.65;63.69
13387;BME280;6763;48.524;9.044;2023-10-31T01:52:37;96340.91;;;14.59;63.61
13387;BME280;6763;48.524;9.044;2023-10-31T01:55:02;96367.63;;;14.77;63.79
13387;BME280;6763;48.524;9.044;2023-10-31T01:57:29;96332.50;;;14.54;63.76
13387;BME280;6763;48.524;9.044;2023-10-31T01:59:55;96344.97;;;14.63;63.70
13387;BME280;6763;48.524;9.044;2023-10-31T02:02:23;96291.25;;;14.33;63.89
13387;BME280;6763;48.524;9.044;2023-10-31T02:04:50;96369.22;;;14.79;63.49
13387;BME280;6763;48.524;9.044;2023-10-31T02:07:15;96338.47;;;14.56;63.35
13387;BME280;6763;48.524;9.044;2023-10-31T02:09:41;96369.94;;;14.67;63.43
13387;BME280;6763;48.524;9.044;2023-10-31T02:12:06;96375.63;;;14.74;63.61
13387;BME280;6763;48.524;9.044;2023-10-31T02:14:31;96383.75;;;14.83;63.73
13387;BME280;6763;48.524;9.044;2023-10-31T02:16:57;96358.41;;;14.71;63.81
13387;BME280;6763;48.524;9.044;2023-10-31T02:19:22;96384.41;;;14.87;63.58
13387;BME280;6763;48.524;9.044;2023-10-31T02:21:48;96391.38;;;14.86;63.76
13387;BME280;6763;48.524;9.044;2023-10-31T02:24:13;96370.50;;;14.72;63.84
13387;BME280;6763;48.524;9.044;2023-10-31T02:26:38;96378.78;;;14.79;63.89
13387;BME280;6763;48.524;9.044;2023-10-31T02:29:04;96389.63;;;14.87;63.83
13387;BME280;6763;48.524;9.044;2023-10-31T02:31:29;96375.38;;;14.78;63.72
13387;BME280;6763;48.524;9.044;2023-10-31T02:33:55;96399.13;;;14.88;63.65
13387;BME280;6763;48.524;9.044;2023-10-31T02:36:21;96398.28;;;14.87;63.78
13387;BME280;6763;48.524;9.044;2023-10-31T02:38:46;96393.75;;;14.91;63.55
13387;BME280;6763;48.524;9.044;2023-10-31T02:41:12;96403.63;;;15.00;63.85
13387;BME280;6763;48.524;9.044;2023-10-31T02:43:38;96409.66;;;15.01;63.67
13387;BME280;6763;48.524;9.044;2023-10-31T02:46:04;96411.59;;;14.97;63.71
13387;BME280;6763;48.524;9.044;2023-10-31T02:48:29;96403.03;;;14.95;63.60
13387;BME280;6763;48.524;9.044;2023-10-31T02:50:57;96405.06;;;14.90;63.81
13387;BME280;6763;48.524;9.044;2023-10-31T02:53:23;96425.63;;;14.95;63.79
13387;BME280;6763;48.524;9.044;2023-10-31T02:55:48;96429.09;;;14.95;64.25
13387;BME280;6763;48.524;9.044;2023-10-31T02:58:13;96435.22;;;14.94;64.33
13387;BME280;6763;48.524;9.044;2023-10-31T03:00:39;96418.94;;;14.90;64.01
13387;BME280;6763;48.524;9.044;2023-10-31T03:03:04;96424.59;;;14.83;63.89
13387;BME280;6763;48.524;9.044;2023-10-31T03:05:29;96405.44;;;14.68;64.41
13387;BME280;6763;48.524;9.044;2023-10-31T03:07:55;96443.56;;;14.85;64.17
13387;BME280;6763;48.524;9.044;2023-10-31T03:10:20;96424.88;;;14.78;64.13
13387;BME280;6763;48.524;9.044;2023-10-31T03:12:46;96427.63;;;14.75;64.51
13387;BME280;6763;48.524;9.044;2023-10-31T03:15:12;96440.50;;;14.78;64.38
13387;BME280;6763;48.524;9.044;2023-10-31T03:17:38;96448.53;;;14.74;64.33
13387;BME280;6763;48.524;9.044;2023-10-31T03:20:03;96445.69;;;14.78;63.79
13387;BME280;6763;48.524;9.044;2023-10-31T03:22:29;96449.38;;;14.74;64.13
13387;BME280;6763;48.524;9.044;2023-10-31T03:24:54;96455.63;;;14.72;64.54
13387;BME280;6763;48.524;9.044;2023-10-31T03:27:19;96445.34;;;14.69;64.10
13387;BME280;6763;48.524;9.044;2023-10-31T03:29:45;96442.09;;;14.65;64.26
13387;BME280;6763;48.524;9.044;2023-10-31T03:32:11;96440.59;;;14.61;64.52
13387;BME280;6763;48.524;9.044;2023-10-31T03:34:37;96439.56;;;14.64;64.39
13387;BME280;6763;48.524;9.044;2023-10-31T03:37:03;96447.13;;;14.68;64.20
13387;BME280;6763;48.524;9.044;2023-10-31T03:39:28;96433.94;;;14.56;64.04
13387;BME280;6763;48.524;9.044;2023-10-31T03:41:54;96438.41;;;14.54;64.28
13387;BME280;6763;48.524;9.044;2023-10-31T03:44:19;96431.78;;;14.48;64.25
13387;BME280;6763;48.524;9.044;2023-10-31T03:46:45;96447.97;;;14.53;64.48
13387;BME280;6763;48.524;9.044;2023-10-31T03:49:10;96459.25;;;14.54;64.54
13387;BME280;6763;48.524;9.044;2023-10-31T03:51:35;96447.66;;;14.44;64.46
13387;BME280;6763;48.524;9.044;2023-10-31T03:54:01;96462.09;;;14.49;64.58
13387;BME280;6763;48.524;9.044;2023-10-31T03:56:26;96456.97;;;14.48;64.37
13387;BME280;6763;48.524;9.044;2023-10-31T03:58:52;96466.47;;;14.49;64.36
13387;BME280;6763;48.524;9.044;2023-10-31T04:01:17;96468.16;;;14.50;64.40
13387;BME280;6763;48.524;9.044;2023-10-31T04:03:43;96457.16;;;14.45;63.97
13387;BME280;6763;48.524;9.044;2023-10-31T04:06:09;96464.19;;;14.43;63.98
13387;BME280;6763;48.524;9.044;2023-10-31T04:08:34;96481.81;;;14.53;64.32
13387;BME280;6763;48.524;9.044;2023-10-31T04:10:59;96480.06;;;14.54;64.28
13387;BME280;6763;48.524;9.044;2023-10-31T04:13:25;96473.84;;;14.56;64.29
13387;BME280;6763;48.524;9.044;2023-10-31T04:15:50;96463.03;;;14.48;64.27
13387;BME280;6763;48.524;9.044;2023-10-31T04:18:15;96462.84;;;14.51;64.27
13387;BME280;6763;48.524;9.044;2023-10-31T04:20:42;96475.38;;;14.60;63.68
13387;BME280;6763;48.524;9.044;2023-10-31T04:23:07;96453.63;;;14.46;64.00
13387;BME280;6763;48.524;9.044;2023-10-31T04:25:33;96480.91;;;14.54;64.02
13387;BME280;6763;48.524;9.044;2023-10-31T04:27:58;96485.09;;;14.57;63.87
13387;BME280;6763;48.524;9.044;2023-10-31T04:30:24;96465.72;;;14.47;63.68
13387;BME280;6763;48.524;9.044;2023-10-31T04:32:49;96480.50;;;14.46;63.86
13387;BME280;6763;48.524;9.044;2023-10-31T04:35:15;96483.94;;;14.47;63.72
13387;BME280;6763;48.524;9.044;2023-10-31T04:37:40;96492.59;;;14.47;64.20
13387;BME280;6763;48.524;9.044;2023-10-31T04:40:06;96495.38;;;14.44;64.33
13387;BME280;6763;48.524;9.044;2023-10-31T04:42:32;96478.56;;;14.34;64.62
13387;BME280;6763;48.524;9.044;2023-10-31T04:44:58;96488.03;;;14.35;64.15
13387;BME280;6763;48.524;9.044;2023-10-31T04:47:24;96487.78;;;14.40;63.91
13387;BME280;6763;48.524;9.044;2023-10-31T04:49:50;96481.06;;;14.36;64.35
13387;BME280;6763;48.524;9.044;2023-10-31T04:52:17;96483.69;;;14.36;64.22
13387;BME280;6763;48.524;9.044;2023-10-31T04:54:42;96479.56;;;14.32;64.24
13387;BME280;6763;48.524;9.044;2023-10-31T04:57:07;96478.63;;;14.33;64.19
13387;BME280;6763;48.524;9.044;2023-10-31T04:59:33;96486.19;;;14.37;64.14
13387;BME280;6763;48.524;9.044;2023-10-31T05:01:58;96491.47;;;14.36;64.05
13387;BME280;6763;48.524;9.044;2023-10-31T05:04:23;96491.75;;;14.31;64.22
13387;BME280;6763;48.524;9.044;2023-10-31T05:06:49;96507.09;;;14.36;63.71
13387;BME280;6763;48.524;9.044;2023-10-31T05:09:14;96514.16;;;14.34;64.07
13387;BME280;6763;48.524;9.044;2023-10-31T05:11:40;96514.28;;;14.30;63.83
13387;BME280;6763;48.524;9.044;2023-10-31T05:14:08;96506.72;;;14.26;63.88
13387;BME280;6763;48.524;9.044;2023-10-31T05:16:43;96500.25;;;14.17;63.36
13387;BME280;6763;48.524;9.044;2023-10-31T05:19:10;96518.47;;;14.17;64.02
13387;BME280;6763;48.524;9.044;2023-10-31T05:21:35;96505.09;;;14.08;63.59
13387;BME280;6763;48.524;9.044;2023-10-31T05:24:01;96520.56;;;14.11;63.60
13387;BME280;6763;48.524;9.044;2023-10-31T05:26:30;96528.44;;;14.09;63.82
13387;BME280;6763;48.524;9.044;2023-10-31T05:28:57;96501.47;;;13.95;63.47
13387;BME280;6763;48.524;9.044;2023-10-31T05:31:23;96494.88;;;13.88;63.27
13387;BME280;6763;48.524;9.044;2023-10-31T05:33:50;96507.88;;;13.88;63.12
13387;BME280;6763;48.524;9.044;2023-10-31T05:36:21;96497.22;;;13.77;63.35
13387;BME280;6763;48.524;9.044;2023-10-31T05:38:49;96496.69;;;13.70;63.47
13387;BME280;6763;48.524;9.044;2023-10-31T05:41:15;96513.72;;;13.76;63.51
13387;BME280;6763;48.524;9.044;2023-10-31T05:43:41;96530.69;;;13.83;63.28
13387;BME280;6763;48.524;9.044;2023-10-31T05:46:07;96524.84;;;13.79;63.48
13387;BME280;6763;48.524;9.044;2023-10-31T05:48:37;96517.44;;;13.72;63.72
13387;BME280;6763;48.524;9.044;2023-10-31T05:51:04;96548.84;;;13.84;63.30
13387;BME280;6763;48.524;9.044;2023-10-31T05:53:30;96511.94;;;13.60;63.42
13387;BME280;6763;48.524;9.044;2023-10-31T05:55:57;96529.81;;;13.66;63.43
13387;BME280;6763;48.524;9.044;2023-10-31T05:58:23;96532.63;;;13.62;62.99
13387;BME280;6763;48.524;9.044;2023-10-31T06:00:48;96559.78;;;13.74;63.42
13387;BME280;6763;48.524;9.044;2023-10-31T06:03:13;96536.22;;;13.59;63.15
13387;BME280;6763;48.524;9.044;2023-10-31T06:05:39;96555.88;;;13.65;63.42
13387;BME280;6763;48.524;9.044;2023-10-31T06:08:04;96550.91;;;13.60;63.10
13387;BME280;6763;48.524;9.044;2023-10-31T06:10:29;96546.16;;;13.51;63.40
13387;BME280;6763;48.524;9.044;2023-10-31T06:12:55;96552.31;;;13.50;63.23
13387;BME280;6763;48.524;9.044;2023-10-31T06:15:20;96570.25;;;13.55;63.45
13387;BME280;6763;48.524;9.044;2023-10-31T06:17:46;96551.75;;;13.44;62.63
13387;BME280;6763;48.524;9.044;2023-10-31T06:20:11;96563.75;;;13.46;63.53
13387;BME280;6763;48.524;9.044;2023-10-31T06:22:36;96573.94;;;13.51;63.65
13387;BME280;6763;48.524;9.044;2023-10-31T06:25:02;96571.25;;;13.52;63.46
13387;BME280;6763;48.524;9.044;2023-10-31T06:27:27;96586.56;;;13.58;63.24
13387;BME280;6763;48.524;9.044;2023-10-31T06:29:53;96585.63;;;13.59;63.46
13387;BME280;6763;48.524;9.044;2023-10-31T06:32:18;96582.72;;;13.65;63.48
13387;BME280;6763;48.524;9.044;2023-10-31T06:34:43;96601.38;;;13.74;63.58
13387;BME280;6763;48.524;9.044;2023-10-31T06:37:09;96587.69;;;13.70;63.42
13387;BME280;6763;48.524;9.044;2023-10-31T06:39:34;96590.38;;;13.68;63.86
13387;BME280;6763;48.524;9.044;2023-10-31T06:41:59;96615.63;;;13.84;63.64
13387;BME280;6763;48.524;9.044;2023-10-31T06:44:25;96622.31;;;13.88;63.47
13387;BME280;6763;48.524;9.044;2023-10-31T06:46:51;96614.47;;;13.89;63.68
13387;BME280;6763;48.524;9.044;2023-10-31T06:49:17;96627.78;;;14.00;63.41
13387;BME280;6763;48.524;9.044;2023-10-31T06:51:42;96615.91;;;13.95;63.53
13387;BME280;6763;48.524;9.044;2023-10-31T06:54:08;96636.09;;;14.07;63.29
13387;BME280;6763;48.524;9.044;2023-10-31T06:56:33;96638.72;;;14.07;63.14
13387;BME280;6763;48.524;9.044;2023-10-31T06:58:58;96629.06;;;14.09;62.97
13387;BME280;6763;48.524;9.044;2023-10-31T07:01:27;96642.06;;;14.26;62.56
13387;BME280;6763;48.524;9.044;2023-10-31T07:03:52;96635.25;;;14.23;62.64
13387;BME280;6763;48.524;9.044;2023-10-31T07:06:17;96640.13;;;14.29;62.77
13387;BME280;6763;48.524;9.044;2023-10-31T07:08:42;96650.81;;;14.42;62.30
13387;BME280;6763;48.524;9.044;2023-10-31T07:11:08;96636.25;;;14.38;61.62
13387;BME280;6763;48.524;9.044;2023-10-31T07:13:34;96643.00;;;14.42;61.60
13387;BME280;6763;48.524;9.044;2023-10-31T07:15:59;96633.41;;;14.43;61.52
13387;BME280;6763;48.524;9.044;2023-10-31T07:18:24;96638.97;;;14.52;61.15
13387;BME280;6763;48.524;9.044;2023-10-31T07:20:49;96626.38;;;14.45;60.87
13387;BME280;6763;48.524;9.044;2023-10-31T07:23:15;96642.25;;;14.56;60.55
13387;BME280;6763;48.524;9.044;2023-10-31T07:25:41;96658.00;;;14.70;60.86
13387;BME280;6763;48.524;9.044;2023-10-31T07:28:06;96669.06;;;14.73;60.45
13387;BME280;6763;48.524;9.044;2023-10-31T07:30:32;96656.41;;;14.67;59.73
13387;BME280;6763;48.524;9.044;2023-10-31T07:32:57;96678.34;;;14.79;59.95
13387;BME280;6763;48.524;9.044;2023-10-31T07:35:22;96672.13;;;14.81;59.49
13387;BME280;6763;48.524;9.044;2023-10-31T07:37:48;96663.66;;;14.78;59.68
13387;BME280;6763;48.524;9.044;2023-10-31T07:40:14;96680.38;;;14.89;59.47
13387;BME280;6763;48.524;9.044;2023-10-31T07:42:39;96665.00;;;14.85;59.05
13387;BME280;6763;48.524;9.044;2023-10-31T07:45:05;96669.88;;;14.91;58.98
13387;BME280;6763;48.524;9.044;2023-10-31T07:47:30;96668.19;;;14.90;58.61
13387;BME280;6763;48.524;9.044;2023-10-31T07:49:56;96679.97;;;14.97;58.44
13387;BME280;6763;48.524;9.044;2023-10-31T07:52:21;96663.56;;;14.95;58.24
13387;BME280;6763;48.524;9.044;2023-10-31T07:54:46;96671.56;;;15.08;57.72
13387;BME280;6763;48.524;9.044;2023-10-31T07:57:12;96666.34;;;15.08;57.41
13387;BME280;6763;48.524;9.044;2023-10-31T07:59:37;96670.06;;;15.19;56.84
13387;BME280;6763;48.524;9.044;2023-10-31T08:02:03;96676.72;;;15.25;57.12
13387;BME280;6763;48.524;9.044;2023-10-31T08:04:29;96673.94;;;15.28;56.86
13387;BME280;6763;48.524;9.044;2023-10-31T08:06:55;96690.28;;;15.47;56.59
13387;BME280;6763;48.524;9.044;2023-10-31T08:09:20;96680.94;;;15.43;56.12
13387;BME280;6763;48.524;9.044;2023-10-31T08:11:46;96672.03;;;15.47;55.89
13387;BME280;6763;48.524;9.044;2023-10-31T08:14:11;96685.22;;;15.60;55.60
13387;BME280;6763;48.524;9.044;2023-10-31T08:16:37;96677.91;;;15.66;55.37
13387;BME280;6763;48.524;9.044;2023-10-31T08:19:02;96666.03;;;15.61;54.88
13387;BME280;6763;48.524;9.044;2023-10-31T08:21:27;96699.56;;;15.82;54.77
13387;BME280;6763;48.524;9.044;2023-10-31T08:24:03;96687.38;;;15.83;54.80
13387;BME280;6763;48.524;9.044;2023-10-31T08:26:30;96684.25;;;15.92;54.11
13387;BME280;6763;48.524;9.044;2023-10-31T08:28:56;96665.75;;;15.81;53.99
13387;BME280;6763;48.524;9.044;2023-10-31T08:31:21;96688.28;;;15.97;53.94
13387;BME280;6763;48.524;9.044;2023-10-31T08:33:46;96648.34;;;15.81;53.64
13387;BME280;6763;48.524;9.044;2023-10-31T08:36:12;96677.91;;;15.96;53.73
13387;BME280;6763;48.524;9.044;2023-10-31T08:38:38;96721.94;;;16.32;53.25
13387;BME280;6763;48.524;9.044;2023-10-31T08:41:03;96708.97;;;16.30;53.05
13387;BME280;6763;48.524;9.044;2023-10-31T08:43:29;96720.28;;;16.45;52.97
13387;BME280;6763;48.524;9.044;2023-10-31T08:45:54;96723.13;;;16.56;52.90
13387;BME280;6763;48.524;9.044;2023-10-31T08:48:20;96684.28;;;16.36;52.41
13387;BME280;6763;48.524;9.044;2023-10-31T08:50:46;96728.56;;;16.67;51.77
13387;BME280;6763;48.524;9.044;2023-10-31T08:53:11;96730.53;;;16.63;51.67
13387;BME280;6763;48.524;9.044;2023-10-31T08:55:37;96724.56;;;16.61;51.74
13387;BME280;6763;48.524;9.044;2023-10-31T08:58:02;96726.88;;;16.66;51.58
13387;BME280;6763;48.524;9.044;2023-10-31T09:00:28;96709.63;;;16.63;51.36
13387;BME280;6763;48.524;9.044;2023-10-31T09:02:54;96722.78;;;16.76;51.58
13387;BME280;6763;48.524;9.044;2023-10-31T09:05:19;96718.91;;;16.83;51.09
13387;BME280;6763;48.524;9.044;2023-10-31T09:07:45;96709.47;;;16.81;50.96
13387;BME280;6763;48.524;9.044;2023-10-31T09:10:12;96702.53;;;16.80;50.80
13387;BME280;6763;48.524;9.044;2023-10-31T09:12:37;96724.03;;;16.99;50.83
13387;BME280;6763;48.524;9.044;2023-10-31T09:15:03;96727.00;;;17.07;50.11
13387;BME280;6763;48.524;9.044;2023-10-31T09:17:29;96701.25;;;17.01;49.69
13387;BME280;6763;48.524;9.044;2023-10-31T09:19:55;96732.16;;;17.08;49.38
13387;BME280;6763;48.524;9.044;2023-10-31T09:22:20;96718.69;;;17.00;49.06
13387;BME280;6763;48.524;9.044;2023-10-31T09:24:45;96722.44;;;16.96;49.43
13387;BME280;6763;48.524;9.044;2023-10-31T09:27:11;96730.63;;;17.04;49.14
13387;BME280;6763;48.524;9.044;2023-10-31T09:29:36;96731.66;;;17.02;48.98
13387;BME280;6763;48.524;9.044;2023-10-31T09:32:02;96699.47;;;16.87;49.03
13387;BME280;6763;48.524;9.044;2023-10-31T09:34:28;96727.59;;;17.12;48.95
13387;BME280;6763;48.524;9.044;2023-10-31T09:36:53;96718.03;;;16.97;48.33
13387;BME280;6763;48.524;9.044;2023-10-31T09:39:19;96694.53;;;16.83;48.63
13387;BME280;6763;48.524;9.044;2023-10-31T09:41:44;96720.38;;;17.01;48.18
13387;BME280;6763;48.524;9.044;2023-10-31T09:44:09;96714.69;;;16.95;48.35
13387;BME280;6763;48.524;9.044;2023-10-31T09:46:35;96725.59;;;17.15;48.10
13387;BME280;6763;48.524;9.044;2023-10-31T09:49:01;96692.00;;;17.09;47.99
13387;BME280;6763;48.524;9.044;2023-10-31T09:51:27;96735.53;;;17.51;47.54
13387;BME280;6763;48.524;9.044;2023-10-31T09:53:54;96733.50;;;17.70;47.36
13387;BME280;6763;48.524;9.044;2023-10-31T09:56:20;96714.66;;;17.78;47.13
13387;BME280;6763;48.524;9.044;2023-10-31T09:58:46;96723.22;;;17.94;46.44
13387;BME280;6763;48.524;9.044;2023-10-31T10:01:12;96679.72;;;17.79;46.12
13387;BME280;6763;48.524;9.044;2023-10-31T10:03:37;96728.25;;;17.97;46.29
13387;BME280;6763;48.524;9.044;2023-10-31T10:06:03;96723.53;;;17.89;46.51
13387;BME280;6763;48.524;9.044;2023-10-31T10:08:29;96698.81;;;17.67;46.73
13387;BME280;6763;48.524;9.044;2023-10-31T10:10:54;96715.75;;;17.88;46.80
13387;BME280;6763;48.524;9.044;2023-10-31T10:13:21;96688.06;;;17.71;47.18
13387;BME280;6763;48.524;9.044;2023-10-31T10:15:47;96722.06;;;17.98;47.09
13387;BME280;6763;48.524;9.044;2023-10-31T10:18:30;96719.72;;;18.08;46.49
13387;BME280;6763;48.524;9.044;2023-10-31T10:21:00;96718.75;;;18.09;46.81
13387;BME280;6763;48.524;9.044;2023-10-31T10:23:26;96721.91;;;18.14;46.41
13387;BME280;6763;48.524;9.044;2023-10-31T10:25:55;96718.50;;;18.26;46.32
13387;BME280;6763;48.524;9.044;2023-10-31T10:28:20;96724.09;;;18.34;46.46
13387;BME280;6763;48.524;9.044;2023-10-31T10:30:47;96723.66;;;18.40;46.12
13387;BME280;6763;48.524;9.044;2023-10-31T10:33:16;96688.84;;;18.25;46.23
13387;BME280;6763;48.524;9.044;2023-10-31T10:35:42;96698.00;;;18.45;46.18
13387;BME280;6763;48.524;9.044;2023-10-31T10:38:13;96725.19;;;18.82;45.92
13387;BME280;6763;48.524;9.044;2023-10-31T10:40:40;96679.28;;;18.64;45.91
13387;BME280;6763;48.524;9.044;2023-10-31T10:43:32;96693.41;;;18.86;45.31
13387;BME280;6763;48.524;9.044;2023-10-31T10:45:58;96730.88;;;19.13;44.68
13387;BME280;6763;48.524;9.044;2023-10-31T10:48:27;96734.53;;;19.11;44.58
13387;BME280;6763;48.524;9.044;2023-10-31T10:51:05;96722.28;;;19.11;44.25
13387;BME280;6763;48.524;9.044;2023-10-31T10:54:31;96740.09;;;19.19;44.43
13387;BME280;6763;48.524;9.044;2023-10-31T10:56:51;96702.56;;;18.93;44.34
13387;BME280;6763;48.524;9.044;2023-10-31T10:59:21;96722.69;;;19.05;44.47
13387;BME280;6763;48.524;9.044;2023-10-31T11:01:51;96680.44;;;18.85;44.28
13387;BME280;6763;48.524;9.044;2023-10-31T11:04:18;96700.66;;;18.95;44.45
13387;BME280;6763;48.524;9.044;2023-10-31T11:06:44;96720.16;;;19.04;44.81
13387;BME280;6763;48.524;9.044;2023-10-31T11:09:10;96721.13;;;19.03;44.67
13387;BME280;6763;48.524;9.044;2023-10-31T11:11:37;96703.91;;;19.11;44.26
13387;BME280;6763;48.524;9.044;2023-10-31T11:14:03;96730.44;;;19.32;43.77
13387;BME280;6763;48.524;9.044;2023-10-31T11:16:53;96741.53;;;19.48;43.59
13387;BME280;6763;48.524;9.044;2023-10-31T11:19:19;96725.41;;;19.42;43.04
13387;BME280;6763;48.524;9.044;2023-10-31T11:21:59;96746.22;;;19.56;42.85
13387;BME280;6763;48.524;9.044;2023-10-31T11:24:31;96741.44;;;19.50;43.13
13387;BME280;6763;48.524;9.044;2023-10-31T11:27:02;96749.50;;;19.59;42.97
13387;BME280;6763;48.524;9.044;2023-10-31T11:29:28;96753.19;;;19.57;42.60
13387;BME280;6763;48.524;9.044;2023-10-31T11:31:56;96753.28;;;19.55;42.81
13387;BME280;6763;48.524;9.044;2023-10-31T11:34:25;96736.81;;;19.41;42.67
13387;BME280;6763;48.524;9.044;2023-10-31T11:36:51;96742.41;;;19.24;43.07
13387;BME280;6763;48.524;9.044;2023-10-31T11:39:21;96739.59;;;19.14;43.34
13387;BME280;6763;48.524;9.044;2023-10-31T11:41:54;96742.31;;;19.00;43.60
13387;BME280;6763;48.524;9.044;2023-10-31T11:44:26;96739.38;;;18.79;43.81
13387;BME280;6763;48.524;9.044;2023-10-31T11:46:52;96735.47;;;18.60;44.24
13387;BME280;6763;48.524;9.044;2023-10-31T11:49:45;96729.47;;;18.57;44.28
13387;BME280;6763;48.524;9.044;2023-10-31T11:52:15;96722.91;;;18.65;44.39
13387;BME280;6763;48.524;9.044;2023-10-31T11:54:42;96754.03;;;18.94;44.04
13387;BME280;6763;48.524;9.044;2023-10-31T11:57:07;96752.56;;;19.15;43.49
13387;BME280;6763;48.524;9.044;2023-10-31T11:59:39;96753.19;;;19.44;43.11
13387;BME280;6763;48.524;9.044;2023-10-31T12:02:17;96747.25;;;19.78;42.48
13387;BME280;6763;48.524;9.044;2023-10-31T12:04:43;96759.38;;;20.16;42.03
13387;BME280;6763;48.524;9.044;2023-10-31T12:07:09;96756.25;;;20.34;41.16
13387;BME280;6763;48.524;9.044;2023-10-31T12:09:48;96766.25;;;20.53;40.59
13387;BME280;6763;48.524;9.044;2023-10-31T12:12:14;96715.94;;;20.23;40.56
13387;BME280;6763;48.524;9.044;2023-10-31T12:14:39;96759.34;;;20.28;41.00
13387;BME280;6763;48.524;9.044;2023-10-31T12:17:05;96763.53;;;20.07;41.19
13387;BME280;6763;48.524;9.044;2023-10-31T12:19:32;96763.28;;;19.87;41.20
13387;BME280;6763;48.524;9.044;2023-10-31T12:21:58;96763.59;;;19.82;41.40
13387;BME280;6763;48.524;9.044;2023-10-31T12:24:23;96743.59;;;19.56;41.57
13387;BME280;6763;48.524;9.044;2023-10-31T12:26:48;96752.97;;;19.60;41.97
13387;BME280;6763;48.524;9.044;2023-10-31T12:29:16;96764.16;;;19.74;41.84
13387;BME280;6763;48.524;9.044;2023-10-31T12:31:52;96764.28;;;19.73;41.96
13387;BME280;6763;48.524;9.044;2023-10-31T12:34:22;96737.09;;;19.61;42.24
13387;BME280;6763;48.524;9.044;2023-10-31T12:36:49;96761.59;;;19.86;41.56
13387;BME280;6763;48.524;9.044;2023-10-31T12:39:17;96768.41;;;19.88;41.56
13387;BME280;6763;48.524;9.044;2023-10-31T12:41:43;96766.38;;;19.68;41.04
13387;BME280;6763;48.524;9.044;2023-10-31T12:44:09;96755.19;;;19.41;40.96
13387;BME280;6763;48.524;9.044;2023-10-31T12:46:41;96763.91;;;19.41;40.90
13387;BME280;6763;48.524;9.044;2023-10-31T12:49:33;96777.53;;;19.34;41.00
13387;BME280;6763;48.524;9.044;2023-10-31T12:52:03;96741.69;;;19.09;41.28
13387;BME280;6763;48.524;9.044;2023-10-31T12:54:36;96771.22;;;19.36;41.14
13387;BME280;6763;48.524;9.044;2023-10-31T12:57:09;96757.09;;;19.26;40.84
13387;BME280;6763;48.524;9.044;2023-10-31T12:59:36;96733.25;;;19.04;40.98
13387;BME280;6763;48.524;9.044;2023-10-31T13:02:03;96768.50;;;19.25;41.08
13387;BME280;6763;48.524;9.044;2023-10-31T13:04:31;96770.84;;;19.30;41.00
13387;BME280;6763;48.524;9.044;2023-10-31T13:07:07;96781.66;;;19.50;41.01